sensor_id;sensor_type;location;lat;lon;timestamp;pressure;altitude;pressure_sealevel;temperature;humidity
70127;BME280;57491;42.694;23.314;2023-03-03T00:00:39;95193.94;;;5.88;70.19
70127;BME280;57491;42.694;23.314;2023-03-03T00:03:07;95189.28;;;5.92;69.55
70127;BME280;57491;42.694;23.314;2023-03-03T00:05:36;95190.81;;;5.84;70.14
70127;BME280;57491;42.694;23.314;2023-03-03T00:08:03;95194.66;;;5.80;70.01
70127;BME280;57491;42.694;23.314;2023-03-03T00:10:32;95187.16;;;5.77;70.14
70127;BME280;57491;42.694;23.314;2023-03-03T00:12:59;95184.97;;;5.82;70.65
70127;BME280;57491;42.694;23.314;2023-03-03T00:15:27;95181.84;;;5.89;69.62
70127;BME280;57491;42.694;23.314;2023-03-03T00:17:54;95181.44;;;5.83;70.04
70127;BME280;57491;42.694;23.314;2023-03-03T00:20:33;95181.38;;;5.75;70.59
70127;BME280;57491;42.694;23.314;2023-03-03T00:23:18;95181.53;;;5.92;70.17
70127;BME280;57491;42.694;23.314;2023-03-03T00:25:49;95172.47;;;5.88;69.81
70127;BME280;57491;42.694;23.314;2023-03-03T00:28:22;95174.50;;;5.84;70.66
70127;BME280;57491;42.694;23.314;2023-03-03T00:30:50;95165.28;;;5.81;70.00
70127;BME280;57491;42.694;23.314;2023-03-03T00:33:24;95173.47;;;5.77;70.44
70127;BME280;57491;42.694;23.314;2023-03-03T00:35:54;95177.53;;;5.79;70.55
70127;BME280;57491;42.694;23.314;2023-03-03T00:38:21;95174.34;;;5.85;70.20
70127;BME280;57491;42.694;23.314;2023-03-03T00:40:49;95167.22;;;5.79;70.53
70127;BME280;57491;42.694;23.314;2023-03-03T00:43:19;95166.53;;;5.77;70.66
70127;BME280;57491;42.694;23.314;2023-03-03T00:45:47;95160.91;;;5.92;70.04
70127;BME280;57491;42.694;23.314;2023-03-03T00:48:24;95160.31;;;5.98;69.83
70127;BME280;57491;42.694;23.314;2023-03-03T00:50:53;95161.63;;;6.02;70.02
70127;BME280;57491;42.694;23.314;2023-03-03T00:53:21;95149.53;;;6.02;70.00
70127;BME280;57491;42.694;23.314;2023-03-03T00:55:51;95148.47;;;6.13;70.34
70127;BME280;57491;42.694;23.314;2023-03-03T00:58:20;95148.41;;;6.05;69.81
70127;BME280;57491;42.694;23.314;2023-03-03T01:00:48;95133.22;;;6.19;70.06
70127;BME280;57491;42.694;23.314;2023-03-03T01:03:17;95139.69;;;6.23;69.44
70127;BME280;57491;42.694;23.314;2023-03-03T01:05:45;95130.69;;;6.27;69.09
70127;BME280;57491;42.694;23.314;2023-03-03T01:08:12;95126.56;;;6.35;69.21
70127;BME280;57491;42.694;23.314;2023-03-03T01:10:42;95124.28;;;6.40;69.14
70127;BME280;57491;42.694;23.314;2023-03-03T01:13:12;95131.75;;;6.43;68.80
70127;BME280;57491;42.694;23.314;2023-03-03T01:15:39;95128.47;;;6.33;69.08
70127;BME280;57491;42.694;23.314;2023-03-03T01:18:07;95126.03;;;6.31;68.59
70127;BME280;57491;42.694;23.314;2023-03-03T01:20:34;95122.47;;;6.32;68.72
70127;BME280;57491;42.694;23.314;2023-03-03T01:23:02;95125.06;;;6.32;68.94
70127;BME280;57491;42.694;23.314;2023-03-03T01:25:29;95126.56;;;6.17;69.22
70127;BME280;57491;42.694;23.314;2023-03-03T01:27:56;95132.41;;;6.19;69.34
70127;BME280;57491;42.694;23.314;2023-03-03T01:30:25;95129.81;;;6.19;69.16
70127;BME280;57491;42.694;23.314;2023-03-03T01:32:52;95124.66;;;6.19;69.20
70127;BME280;57491;42.694;23.314;2023-03-03T01:35:20;95118.22;;;6.23;69.09
70127;BME280;57491;42.694;23.314;2023-03-03T01:37:47;95115.28;;;6.18;69.34
70127;BME280;57491;42.694;23.314;2023-03-03T01:40:17;95118.72;;;6.26;69.20
70127;BME280;57491;42.694;23.314;2023-03-03T01:42:45;95120.03;;;6.31;69.35
70127;BME280;57491;42.694;23.314;2023-03-03T01:45:17;95120.03;;;6.31;69.01
70127;BME280;57491;42.694;23.314;2023-03-03T01:47:51;95112.81;;;6.34;68.48
70127;BME280;57491;42.694;23.314;2023-03-03T01:50:29;95115.19;;;6.27;68.72
70127;BME280;57491;42.694;23.314;2023-03-03T01:52:59;95121.53;;;6.33;69.01
70127;BME280;57491;42.694;23.314;2023-03-03T01:55:31;95113.00;;;6.15;69.37
70127;BME280;57491;42.694;23.314;2023-03-03T01:58:02;95116.22;;;6.17;69.28
70127;BME280;57491;42.694;23.314;2023-03-03T02:00:31;95116.16;;;6.26;68.96
70127;BME280;57491;42.694;23.314;2023-03-03T02:03:01;95112.91;;;6.24;68.63
70127;BME280;57491;42.694;23.314;2023-03-03T02:05:28;95107.19;;;6.13;69.14
70127;BME280;57491;42.694;23.314;2023-03-03T02:07:55;95114.88;;;6.31;68.58
70127;BME280;57491;42.694;23.314;2023-03-03T02:10:23;95114.41;;;6.35;68.76
70127;BME280;57491;42.694;23.314;2023-03-03T02:12:52;95118.09;;;6.24;68.86
70127;BME280;57491;42.694;23.314;2023-03-03T02:15:21;95111.16;;;6.25;68.53
70127;BME280;57491;42.694;23.314;2023-03-03T02:17:51;95109.38;;;6.25;68.45
70127;BME280;57491;42.694;23.314;2023-03-03T02:20:28;95104.25;;;6.08;68.80
70127;BME280;57491;42.694;23.314;2023-03-03T02:23:03;95107.28;;;6.03;68.85
70127;BME280;57491;42.694;23.314;2023-03-03T02:25:39;95108.63;;;6.07;68.82
70127;BME280;57491;42.694;23.314;2023-03-03T02:28:11;95105.63;;;6.20;68.46
70127;BME280;57491;42.694;23.314;2023-03-03T02:30:39;95115.00;;;6.21;68.19
70127;BME280;57491;42.694;23.314;2023-03-03T02:33:06;95112.25;;;6.22;68.07
70127;BME280;57491;42.694;23.314;2023-03-03T02:35:35;95104.25;;;6.34;68.62
70127;BME280;57491;42.694;23.314;2023-03-03T02:38:11;95111.91;;;6.43;67.26
70127;BME280;57491;42.694;23.314;2023-03-03T02:40:46;95107.09;;;6.48;67.13
70127;BME280;57491;42.694;23.314;2023-03-03T02:43:19;95107.75;;;6.50;66.95
70127;BME280;57491;42.694;23.314;2023-03-03T02:45:48;95108.81;;;6.40;66.91
70127;BME280;57491;42.694;23.314;2023-03-03T02:48:15;95105.44;;;6.39;67.43
70127;BME280;57491;42.694;23.314;2023-03-03T02:50:42;95106.19;;;6.32;67.94
70127;BME280;57491;42.694;23.314;2023-03-03T02:53:09;95100.59;;;6.18;68.23
70127;BME280;57491;42.694;23.314;2023-03-03T02:55:36;95110.13;;;6.18;68.15
70127;BME280;57491;42.694;23.314;2023-03-03T02:58:03;95105.28;;;6.15;68.38
70127;BME280;57491;42.694;23.314;2023-03-03T03:00:31;95101.69;;;6.08;68.44
70127;BME280;57491;42.694;23.314;2023-03-03T03:02:58;95099.19;;;5.98;68.78
70127;BME280;57491;42.694;23.314;2023-03-03T03:05:26;95105.00;;;5.82;69.54
70127;BME280;57491;42.694;23.314;2023-03-03T03:07:53;95108.25;;;5.84;69.34
70127;BME280;57491;42.694;23.314;2023-03-03T03:10:20;95103.81;;;5.95;69.21
70127;BME280;57491;42.694;23.314;2023-03-03T03:12:47;95111.66;;;6.03;68.95
70127;BME280;57491;42.694;23.314;2023-03-03T03:15:15;95101.97;;;6.05;69.45
70127;BME280;57491;42.694;23.314;2023-03-03T03:17:43;95101.78;;;5.98;69.48
70127;BME280;57491;42.694;23.314;2023-03-03T03:20:11;95100.97;;;5.98;69.63
70127;BME280;57491;42.694;23.314;2023-03-03T03:22:38;95094.22;;;6.05;69.73
70127;BME280;57491;42.694;23.314;2023-03-03T03:25:06;95102.28;;;6.02;70.59
70127;BME280;57491;42.694;23.314;2023-03-03T03:27:33;95099.25;;;6.06;70.75
70127;BME280;57491;42.694;23.314;2023-03-03T03:30:00;95095.47;;;6.01;70.92
70127;BME280;57491;42.694;23.314;2023-03-03T03:32:27;95101.59;;;6.00;69.75
70127;BME280;57491;42.694;23.314;2023-03-03T03:34:56;95097.13;;;6.02;70.80
70127;BME280;57491;42.694;23.314;2023-03-03T03:37:23;95090.38;;;6.09;70.59
70127;BME280;57491;42.694;23.314;2023-03-03T03:39:50;95091.94;;;6.02;70.82
70127;BME280;57491;42.694;23.314;2023-03-03T03:42:17;95088.69;;;6.00;71.10
70127;BME280;57491;42.694;23.314;2023-03-03T03:44:44;95084.81;;;5.96;71.34
70127;BME280;57491;42.694;23.314;2023-03-03T03:47:11;95083.78;;;5.89;71.32
70127;BME280;57491;42.694;23.314;2023-03-03T03:49:38;95085.09;;;5.93;72.20
70127;BME280;57491;42.694;23.314;2023-03-03T03:52:06;95084.75;;;5.88;72.67
70127;BME280;57491;42.694;23.314;2023-03-03T03:54:33;95081.41;;;5.95;72.25
70127;BME280;57491;42.694;23.314;2023-03-03T03:57:00;95083.44;;;6.09;72.11
70127;BME280;57491;42.694;23.314;2023-03-03T03:59:28;95083.63;;;6.08;71.69
70127;BME280;57491;42.694;23.314;2023-03-03T04:01:55;95076.88;;;6.15;72.43
70127;BME280;57491;42.694;23.314;2023-03-03T04:04:22;95080.09;;;6.17;71.20
70127;BME280;57491;42.694;23.314;2023-03-03T04:06:49;95080.56;;;6.12;72.23
70127;BME280;57491;42.694;23.314;2023-03-03T04:09:18;95077.22;;;6.20;72.83
70127;BME280;57491;42.694;23.314;2023-03-03T04:11:45;95073.06;;;6.27;70.91
70127;BME280;57491;42.694;23.314;2023-03-03T04:14:12;95079.16;;;6.18;71.48
70127;BME280;57491;42.694;23.314;2023-03-03T04:16:39;95071.41;;;6.18;71.57
70127;BME280;57491;42.694;23.314;2023-03-03T04:19:06;95079.34;;;6.24;72.27
70127;BME280;57491;42.694;23.314;2023-03-03T04:21:33;95077.31;;;6.36;71.98
70127;BME280;57491;42.694;23.314;2023-03-03T04:24:00;95078.97;;;6.45;71.34
70127;BME280;57491;42.694;23.314;2023-03-03T04:26:29;95072.84;;;6.46;71.24
70127;BME280;57491;42.694;23.314;2023-03-03T04:28:57;95075.78;;;6.51;70.69
70127;BME280;57491;42.694;23.314;2023-03-03T04:31:24;95070.81;;;6.58;70.72
70127;BME280;57491;42.694;23.314;2023-03-03T04:33:51;95065.97;;;6.55;71.90
70127;BME280;57491;42.694;23.314;2023-03-03T04:36:19;95070.59;;;6.43;70.32
70127;BME280;57491;42.694;23.314;2023-03-03T04:38:46;95068.66;;;6.45;71.35
70127;BME280;57491;42.694;23.314;2023-03-03T04:41:14;95066.69;;;6.39;70.92
70127;BME280;57491;42.694;23.314;2023-03-03T04:43:42;95066.16;;;6.36;71.68
70127;BME280;57491;42.694;23.314;2023-03-03T04:46:09;95067.34;;;6.41;71.59
70127;BME280;57491;42.694;23.314;2023-03-03T04:48:36;95070.53;;;6.35;72.28
70127;BME280;57491;42.694;23.314;2023-03-03T04:51:04;95068.97;;;6.42;71.48
70127;BME280;57491;42.694;23.314;2023-03-03T04:53:31;95067.38;;;6.49;72.12
70127;BME280;57491;42.694;23.314;2023-03-03T04:55:58;95071.22;;;6.45;71.72
70127;BME280;57491;42.694;23.314;2023-03-03T04:58:25;95071.06;;;6.39;71.39
70127;BME280;57491;42.694;23.314;2023-03-03T05:00:56;95072.47;;;6.33;71.89
70127;BME280;57491;42.694;23.314;2023-03-03T05:03:23;95074.38;;;6.31;71.93
70127;BME280;57491;42.694;23.314;2023-03-03T05:05:51;95077.94;;;6.30;72.92
70127;BME280;57491;42.694;23.314;2023-03-03T05:08:18;95077.41;;;6.26;71.52
70127;BME280;57491;42.694;23.314;2023-03-03T05:10:45;95079.41;;;6.33;72.18
70127;BME280;57491;42.694;23.314;2023-03-03T05:13:12;95075.91;;;6.42;72.31
70127;BME280;57491;42.694;23.314;2023-03-03T05:15:40;95077.34;;;6.44;72.44
70127;BME280;57491;42.694;23.314;2023-03-03T05:18:09;95072.13;;;6.28;71.83
70127;BME280;57491;42.694;23.314;2023-03-03T05:20:38;95086.66;;;6.29;72.33
70127;BME280;57491;42.694;23.314;2023-03-03T05:23:05;95081.38;;;6.39;72.70
70127;BME280;57491;42.694;23.314;2023-03-03T05:25:32;95083.78;;;6.40;72.12
70127;BME280;57491;42.694;23.314;2023-03-03T05:27:59;95081.59;;;6.53;72.01
70127;BME280;57491;42.694;23.314;2023-03-03T05:30:26;95090.97;;;6.54;72.04
70127;BME280;57491;42.694;23.314;2023-03-03T05:32:53;95089.66;;;6.50;71.63
70127;BME280;57491;42.694;23.314;2023-03-03T05:35:22;95084.16;;;6.45;71.41
70127;BME280;57491;42.694;23.314;2023-03-03T05:37:49;95089.03;;;6.48;71.47
70127;BME280;57491;42.694;23.314;2023-03-03T05:40:17;95094.22;;;6.56;70.82
70127;BME280;57491;42.694;23.314;2023-03-03T05:42:45;95094.66;;;6.44;70.95
70127;BME280;57491;42.694;23.314;2023-03-03T05:45:12;95089.41;;;6.36;71.71
70127;BME280;57491;42.694;23.314;2023-03-03T05:47:39;95091.03;;;6.37;72.11
70127;BME280;57491;42.694;23.314;2023-03-03T05:50:06;95098.16;;;6.17;72.10
70127;BME280;57491;42.694;23.314;2023-03-03T05:52:35;95095.28;;;5.94;73.09
70127;BME280;57491;42.694;23.314;2023-03-03T05:55:02;95094.66;;;5.82;72.69
70127;BME280;57491;42.694;23.314;2023-03-03T05:57:29;95097.56;;;5.97;73.11
70127;BME280;57491;42.694;23.314;2023-03-03T05:59:56;95074.56;;;5.68;73.24
70127;BME280;57491;42.694;23.314;2023-03-03T06:02:23;95103.22;;;5.83;73.87
70127;BME280;57491;42.694;23.314;2023-03-03T06:04:50;95097.25;;;5.82;72.95
70127;BME280;57491;42.694;23.314;2023-03-03T06:07:17;95100.78;;;5.64;73.74
70127;BME280;57491;42.694;23.314;2023-03-03T06:09:46;95090.09;;;5.59;73.90
70127;BME280;57491;42.694;23.314;2023-03-03T06:12:13;95096.88;;;5.77;75.19
70127;BME280;57491;42.694;23.314;2023-03-03T06:14:40;95110.47;;;5.79;73.70
70127;BME280;57491;42.694;23.314;2023-03-03T06:17:07;95090.78;;;5.96;74.21
70127;BME280;57491;42.694;23.314;2023-03-03T06:19:35;95106.28;;;6.22;73.26
70127;BME280;57491;42.694;23.314;2023-03-03T06:22:03;95103.41;;;6.25;72.86
70127;BME280;57491;42.694;23.314;2023-03-03T06:24:30;95109.53;;;6.24;72.00
70127;BME280;57491;42.694;23.314;2023-03-03T06:26:59;95104.06;;;6.27;72.06
70127;BME280;57491;42.694;23.314;2023-03-03T06:29:27;95114.78;;;6.14;72.03
70127;BME280;57491;42.694;23.314;2023-03-03T06:31:54;95104.31;;;6.16;72.71
70127;BME280;57491;42.694;23.314;2023-03-03T06:34:22;95111.84;;;6.09;71.39
70127;BME280;57491;42.694;23.314;2023-03-03T06:36:49;95111.56;;;5.95;72.91
70127;BME280;57491;42.694;23.314;2023-03-03T06:39:16;95104.84;;;6.02;73.73
70127;BME280;57491;42.694;23.314;2023-03-03T06:41:44;95103.41;;;6.25;73.24
70127;BME280;57491;42.694;23.314;2023-03-03T06:44:12;95101.50;;;6.35;73.32
70127;BME280;57491;42.694;23.314;2023-03-03T06:46:39;95114.22;;;6.54;72.43
70127;BME280;57491;42.694;23.314;2023-03-03T06:49:06;95095.38;;;6.62;71.79
70127;BME280;57491;42.694;23.314;2023-03-03T06:51:34;95123.06;;;6.78;71.23
70127;BME280;57491;42.694;23.314;2023-03-03T06:54:09;95111.41;;;6.73;70.99
70127;BME280;57491;42.694;23.314;2023-03-03T06:56:37;95108.38;;;6.78;71.04
70127;BME280;57491;42.694;23.314;2023-03-03T06:59:11;95112.78;;;6.94;70.49
70127;BME280;57491;42.694;23.314;2023-03-03T07:01:39;95106.63;;;6.87;69.55
70127;BME280;57491;42.694;23.314;2023-03-03T07:04:13;95109.09;;;6.96;68.82
70127;BME280;57491;42.694;23.314;2023-03-03T07:06:41;95115.59;;;7.08;69.44
70127;BME280;57491;42.694;23.314;2023-03-03T07:09:14;95120.03;;;7.24;68.22
70127;BME280;57491;42.694;23.314;2023-03-03T07:11:44;95112.28;;;7.40;70.08
70127;BME280;57491;42.694;23.314;2023-03-03T07:14:16;95127.00;;;7.48;69.58
70127;BME280;57491;42.694;23.314;2023-03-03T07:16:43;95121.69;;;7.57;68.48
70127;BME280;57491;42.694;23.314;2023-03-03T07:19:17;95115.22;;;7.61;68.19
70127;BME280;57491;42.694;23.314;2023-03-03T07:21:45;95117.81;;;7.61;67.33
70127;BME280;57491;42.694;23.314;2023-03-03T07:24:23;95115.88;;;7.55;67.36
70127;BME280;57491;42.694;23.314;2023-03-03T07:26:52;95121.69;;;7.57;68.32
70127;BME280;57491;42.694;23.314;2023-03-03T07:29:23;95124.00;;;7.60;68.36
70127;BME280;57491;42.694;23.314;2023-03-03T07:31:52;95120.41;;;7.53;67.35
70127;BME280;57491;42.694;23.314;2023-03-03T07:34:21;95118.78;;;7.52;67.46
70127;BME280;57491;42.694;23.314;2023-03-03T07:36:49;95117.69;;;7.63;68.15
70127;BME280;57491;42.694;23.314;2023-03-03T07:39:25;95111.53;;;7.72;67.58
70127;BME280;57491;42.694;23.314;2023-03-03T07:42:01;95115.09;;;7.63;67.05
70127;BME280;57491;42.694;23.314;2023-03-03T07:44:38;95117.84;;;7.78;67.17
70127;BME280;57491;42.694;23.314;2023-03-03T07:47:14;95100.06;;;7.83;67.76
70127;BME280;57491;42.694;23.314;2023-03-03T07:49:44;95108.16;;;7.96;66.80
70127;BME280;57491;42.694;23.314;2023-03-03T07:52:25;95113.00;;;7.99;66.86
70127;BME280;57491;42.694;23.314;2023-03-03T07:54:54;95108.47;;;7.85;64.75
70127;BME280;57491;42.694;23.314;2023-03-03T07:57:24;95107.69;;;7.92;65.31
70127;BME280;57491;42.694;23.314;2023-03-03T07:59:54;95102.03;;;7.97;64.81
70127;BME280;57491;42.694;23.314;2023-03-03T08:02:34;95113.16;;;7.81;65.00
70127;BME280;57491;42.694;23.314;2023-03-03T08:05:21;95100.22;;;7.81;66.29
70127;BME280;57491;42.694;23.314;2023-03-03T08:07:52;95104.44;;;7.82;66.28
70127;BME280;57491;42.694;23.314;2023-03-03T08:10:30;95099.41;;;7.73;64.81
70127;BME280;57491;42.694;23.314;2023-03-03T08:13:08;95104.25;;;7.76;66.41
70127;BME280;57491;42.694;23.314;2023-03-03T08:15:40;95103.28;;;7.77;65.15
70127;BME280;57491;42.694;23.314;2023-03-03T08:18:17;95103.97;;;7.79;65.09
70127;BME280;57491;42.694;23.314;2023-03-03T08:20:50;95094.22;;;7.81;66.75
70127;BME280;57491;42.694;23.314;2023-03-03T08:23:19;95097.47;;;7.83;65.88
70127;BME280;57491;42.694;23.314;2023-03-03T08:25:47;95091.81;;;7.87;66.81
70127;BME280;57491;42.694;23.314;2023-03-03T08:28:15;95096.81;;;7.81;66.27
70127;BME280;57491;42.694;23.314;2023-03-03T08:30:44;95093.59;;;7.95;66.20
70127;BME280;57491;42.694;23.314;2023-03-03T08:33:11;95091.81;;;8.03;66.95
70127;BME280;57491;42.694;23.314;2023-03-03T08:35:39;95093.09;;;8.16;66.04
70127;BME280;57491;42.694;23.314;2023-03-03T08:38:07;95086.47;;;8.29;65.95
70127;BME280;57491;42.694;23.314;2023-03-03T08:40:34;95087.09;;;8.39;64.05
70127;BME280;57491;42.694;23.314;2023-03-03T08:43:01;95093.09;;;8.40;65.07
70127;BME280;57491;42.694;23.314;2023-03-03T08:45:28;95087.75;;;8.41;64.80
70127;BME280;57491;42.694;23.314;2023-03-03T08:47:58;95088.72;;;8.40;65.73
70127;BME280;57491;42.694;23.314;2023-03-03T08:50:27;95085.28;;;8.48;65.03
70127;BME280;57491;42.694;23.314;2023-03-03T08:52:54;95087.38;;;8.52;64.85
70127;BME280;57491;42.694;23.314;2023-03-03T08:55:21;95091.44;;;8.55;63.78
70127;BME280;57491;42.694;23.314;2023-03-03T08:57:48;95086.09;;;8.57;64.84
70127;BME280;57491;42.694;23.314;2023-03-03T09:00:16;95084.47;;;8.56;64.68
70127;BME280;57491;42.694;23.314;2023-03-03T09:02:44;95090.91;;;8.76;64.53
70127;BME280;57491;42.694;23.314;2023-03-03T09:05:13;95084.47;;;8.64;65.85
70127;BME280;57491;42.694;23.314;2023-03-03T09:07:42;95088.97;;;8.70;64.25
70127;BME280;57491;42.694;23.314;2023-03-03T09:10:11;95092.66;;;8.75;62.85
70127;BME280;57491;42.694;23.314;2023-03-03T09:12:39;95091.25;;;8.73;63.86
70127;BME280;57491;42.694;23.314;2023-03-03T09:15:14;95090.66;;;8.38;63.48
70127;BME280;57491;42.694;23.314;2023-03-03T09:17:42;95085.75;;;8.51;64.79
70127;BME280;57491;42.694;23.314;2023-03-03T09:20:30;95083.47;;;8.73;63.93
70127;BME280;57491;42.694;23.314;2023-03-03T09:22:58;95089.97;;;8.52;62.59
70127;BME280;57491;42.694;23.314;2023-03-03T09:25:30;95087.03;;;8.72;63.87
70127;BME280;57491;42.694;23.314;2023-03-03T09:27:58;95076.44;;;8.89;63.67
70127;BME280;57491;42.694;23.314;2023-03-03T09:30:33;95077.53;;;8.95;62.23
70127;BME280;57491;42.694;23.314;2023-03-03T09:33:16;95097.19;;;9.20;62.92
70127;BME280;57491;42.694;23.314;2023-03-03T09:35:50;95075.78;;;9.26;61.10
70127;BME280;57491;42.694;23.314;2023-03-03T09:38:25;95085.94;;;9.28;61.66
70127;BME280;57491;42.694;23.314;2023-03-03T09:41:36;95086.38;;;9.39;61.77
70127;BME280;57491;42.694;23.314;2023-03-03T09:44:24;95082.13;;;9.47;61.54
70127;BME280;57491;42.694;23.314;2023-03-03T09:49:56;95085.81;;;9.52;58.79
70127;BME280;57491;42.694;23.314;2023-03-03T09:52:34;95080.50;;;9.46;59.96
70127;BME280;57491;42.694;23.314;2023-03-03T09:55:13;95089.97;;;9.38;58.57
70127;BME280;57491;42.694;23.314;2023-03-03T09:57:52;95080.25;;;9.32;59.53
70127;BME280;57491;42.694;23.314;2023-03-03T10:00:33;95078.97;;;9.36;59.58
70127;BME280;57491;42.694;23.314;2023-03-03T10:03:18;95088.50;;;9.05;59.55
70127;BME280;57491;42.694;23.314;2023-03-03T10:05:55;95080.81;;;9.20;59.82
70127;BME280;57491;42.694;23.314;2023-03-03T10:08:44;95082.56;;;9.27;58.78
70127;BME280;57491;42.694;23.314;2023-03-03T10:11:19;95073.94;;;9.35;59.02
70127;BME280;57491;42.694;23.314;2023-03-03T10:13:58;95076.00;;;9.39;59.84
70127;BME280;57491;42.694;23.314;2023-03-03T10:16:40;95069.84;;;9.40;58.96
70127;BME280;57491;42.694;23.314;2023-03-03T10:19:19;95077.75;;;9.47;59.10
70127;BME280;57491;42.694;23.314;2023-03-03T10:21:56;95067.38;;;9.47;58.66
70127;BME280;57491;42.694;23.314;2023-03-03T10:24:29;95057.63;;;9.49;60.26
70127;BME280;57491;42.694;23.314;2023-03-03T10:27:10;95071.94;;;9.68;60.37
70127;BME280;57491;42.694;23.314;2023-03-03T10:29:43;95061.50;;;9.76;61.94
70127;BME280;57491;42.694;23.314;2023-03-03T10:32:32;95061.28;;;9.77;60.99
70127;BME280;57491;42.694;23.314;2023-03-03T10:35:14;95054.97;;;9.80;60.00
70127;BME280;57491;42.694;23.314;2023-03-03T10:37:50;95047.53;;;9.77;62.41
70127;BME280;57491;42.694;23.314;2023-03-03T10:40:25;95061.25;;;9.85;61.09
70127;BME280;57491;42.694;23.314;2023-03-03T10:43:15;95052.94;;;9.90;62.33
70127;BME280;57491;42.694;23.314;2023-03-03T10:49:05;95061.91;;;10.02;61.02
70127;BME280;57491;42.694;23.314;2023-03-03T10:51:37;95051.81;;;10.07;62.26
70127;BME280;57491;42.694;23.314;2023-03-03T10:54:18;95048.56;;;10.05;61.86
70127;BME280;57491;42.694;23.314;2023-03-03T10:56:56;95044.34;;;10.04;63.26
70127;BME280;57491;42.694;23.314;2023-03-03T10:59:36;95041.22;;;9.94;62.65
70127;BME280;57491;42.694;23.314;2023-03-03T11:02:15;95042.75;;;10.03;61.87
70127;BME280;57491;42.694;23.314;2023-03-03T11:04:57;95040.78;;;10.05;62.18
70127;BME280;57491;42.694;23.314;2023-03-03T11:07:34;95033.97;;;10.04;60.57
70127;BME280;57491;42.694;23.314;2023-03-03T11:10:13;95036.66;;;9.96;60.82
70127;BME280;57491;42.694;23.314;2023-03-03T11:12:51;95032.78;;;9.92;60.43
70127;BME280;57491;42.694;23.314;2023-03-03T11:15:33;95020.72;;;9.99;60.80
70127;BME280;57491;42.694;23.314;2023-03-03T11:18:20;95030.91;;;10.01;60.86
70127;BME280;57491;42.694;23.314;2023-03-03T11:20:55;95022.13;;;9.87;61.96
70127;BME280;57491;42.694;23.314;2023-03-03T11:23:52;95020.41;;;9.79;60.58
70127;BME280;57491;42.694;23.314;2023-03-03T11:26:31;95017.72;;;9.88;62.14
70127;BME280;57491;42.694;23.314;2023-03-03T11:31:55;95016.03;;;9.80;60.73
70127;BME280;57491;42.694;23.314;2023-03-03T11:34:38;95019.44;;;9.80;61.22
70127;BME280;57491;42.694;23.314;2023-03-03T11:37:13;95023.28;;;9.84;63.20
70127;BME280;57491;42.694;23.314;2023-03-03T11:39:43;95014.53;;;9.85;62.12
70127;BME280;57491;42.694;23.314;2023-03-03T11:42:16;95018.19;;;9.91;63.22
70127;BME280;57491;42.694;23.314;2023-03-03T11:44:49;95000.00;;;9.91;65.55
70127;BME280;57491;42.694;23.314;2023-03-03T11:47:21;95006.41;;;10.03;63.92
70127;BME280;57491;42.694;23.314;2023-03-03T11:49:53;95009.44;;;10.07;62.61
70127;BME280;57491;42.694;23.314;2023-03-03T11:52:28;95003.97;;;10.02;60.87
70127;BME280;57491;42.694;23.314;2023-03-03T11:54:59;95006.19;;;9.90;62.25
70127;BME280;57491;42.694;23.314;2023-03-03T11:57:31;95008.81;;;9.90;62.11
70127;BME280;57491;42.694;23.314;2023-03-03T12:02:54;95002.97;;;9.88;62.02
70127;BME280;57491;42.694;23.314;2023-03-03T12:05:34;94998.47;;;9.82;61.70
70127;BME280;57491;42.694;23.314;2023-03-03T12:08:09;95006.31;;;9.74;61.88
70127;BME280;57491;42.694;23.314;2023-03-03T12:10:43;95008.59;;;9.77;66.01
70127;BME280;57491;42.694;23.314;2023-03-03T12:13:19;94981.97;;;9.75;63.33
70127;BME280;57491;42.694;23.314;2023-03-03T12:16:00;95004.81;;;9.79;62.49
70127;BME280;57491;42.694;23.314;2023-03-03T12:18:48;95002.69;;;9.83;64.23
70127;BME280;57491;42.694;23.314;2023-03-03T12:21:29;95004.94;;;9.86;65.51
70127;BME280;57491;42.694;23.314;2023-03-03T12:24:11;95002.03;;;10.04;65.55
70127;BME280;57491;42.694;23.314;2023-03-03T12:26:51;95003.56;;;10.13;64.27
70127;BME280;57491;42.694;23.314;2023-03-03T12:29:25;94998.47;;;10.19;64.45
70127;BME280;57491;42.694;23.314;2023-03-03T12:32:03;95000.81;;;10.29;63.71
70127;BME280;57491;42.694;23.314;2023-03-03T12:34:39;95004.22;;;10.29;63.80
70127;BME280;57491;42.694;23.314;2023-03-03T12:37:16;95013.00;;;10.28;64.28
70127;BME280;57491;42.694;23.314;2023-03-03T12:39:53;95004.59;;;10.26;63.24
70127;BME280;57491;42.694;23.314;2023-03-03T12:42:33;95013.31;;;10.11;62.85
70127;BME280;57491;42.694;23.314;2023-03-03T12:45:13;95010.34;;;9.99;63.36
70127;BME280;57491;42.694;23.314;2023-03-03T12:47:49;95010.47;;;9.83;63.32
70127;BME280;57491;42.694;23.314;2023-03-03T12:50:30;95016.50;;;9.61;62.79
70127;BME280;57491;42.694;23.314;2023-03-03T12:53:12;95013.69;;;9.48;65.52
70127;BME280;57491;42.694;23.314;2023-03-03T12:55:49;95011.44;;;9.45;65.93
70127;BME280;57491;42.694;23.314;2023-03-03T12:58:27;95010.63;;;9.44;67.01
70127;BME280;57491;42.694;23.314;2023-03-03T13:01:08;95009.28;;;9.25;65.21
70127;BME280;57491;42.694;23.314;2023-03-03T13:03:47;95014.69;;;9.16;67.13
70127;BME280;57491;42.694;23.314;2023-03-03T13:06:21;95003.97;;;9.19;67.16
70127;BME280;57491;42.694;23.314;2023-03-03T13:09:02;94999.38;;;9.29;66.97
70127;BME280;57491;42.694;23.314;2023-03-03T13:11:46;95008.25;;;9.34;68.71
70127;BME280;57491;42.694;23.314;2023-03-03T13:14:24;95000.81;;;9.31;66.34
70127;BME280;57491;42.694;23.314;2023-03-03T13:17:02;94998.78;;;9.41;68.28
70127;BME280;57491;42.694;23.314;2023-03-03T13:19:37;94994.09;;;9.60;66.48
70127;BME280;57491;42.694;23.314;2023-03-03T13:22:10;94997.06;;;9.94;68.80
70127;BME280;57491;42.694;23.314;2023-03-03T13:24:48;94994.19;;;10.26;67.36
70127;BME280;57491;42.694;23.314;2023-03-03T13:27:22;94996.50;;;10.51;63.85
70127;BME280;57491;42.694;23.314;2023-03-03T13:29:56;94987.88;;;10.80;63.58
70127;BME280;57491;42.694;23.314;2023-03-03T13:32:30;94990.41;;;11.09;62.82
70127;BME280;57491;42.694;23.314;2023-03-03T13:35:06;94985.28;;;11.37;63.66